sensor_id;sensor_type;location;lat;lon;timestamp;temperature;humidity
13982;DHT22;7065;50.880;5.502;2023-02-26T00:01:18;0.30;99.90
13982;DHT22;7065;50.880;5.502;2023-02-26T00:03:48;0.30;99.90
13982;DHT22;7065;50.880;5.502;2023-02-26T00:06:14;0.30;99.90
13982;DHT22;7065;50.880;5.502;2023-02-26T00:08:39;0.30;99.90
13982;DHT22;7065;50.880;5.502;2023-02-26T00:11:07;0.20;99.90
13982;DHT22;7065;50.880;5.502;2023-02-26T00:13:34;0.20;99.90
13982;DHT22;7065;50.880;5.502;2023-02-26T00:16:01;0.20;99.90
13982;DHT22;7065;50.880;5.502;2023-02-26T00:18:27;0.20;99.90
13982;DHT22;7065;50.880;5.502;2023-02-26T00:20:54;0.20;99.90
13982;DHT22;7065;50.880;5.502;2023-02-26T00:23:20;0.20;99.90
13982;DHT22;7065;50.880;5.502;2023-02-26T00:25:46;0.20;99.90
13982;DHT22;7065;50.880;5.502;2023-02-26T00:28:12;0.20;99.90
13982;DHT22;7065;50.880;5.502;2023-02-26T00:30:39;0.10;99.90
13982;DHT22;7065;50.880;5.502;2023-02-26T00:33:05;0.10;99.90
13982;DHT22;7065;50.880;5.502;2023-02-26T00:35:31;0.10;99.90
13982;DHT22;7065;50.880;5.502;2023-02-26T00:38:06;0.00;99.90
13982;DHT22;7065;50.880;5.502;2023-02-26T00:40:49;0.00;99.90
13982;DHT22;7065;50.880;5.502;2023-02-26T00:43:21;-0.10;99.90
13982;DHT22;7065;50.880;5.502;2023-02-26T00:51:17;-0.10;99.90
13982;DHT22;7065;50.880;5.502;2023-02-26T00:53:52;0.00;99.90
13982;DHT22;7065;50.880;5.502;2023-02-26T00:56:20;0.00;99.90
13982;DHT22;7065;50.880;5.502;2023-02-26T00:58:46;0.00;99.90
13982;DHT22;7065;50.880;5.502;2023-02-26T01:01:11;0.00;99.90
13982;DHT22;7065;50.880;5.502;2023-02-26T01:03:37;0.10;99.90
13982;DHT22;7065;50.880;5.502;2023-02-26T01:06:03;0.10;99.90
13982;DHT22;7065;50.880;5.502;2023-02-26T01:08:44;0.00;99.90
13982;DHT22;7065;50.880;5.502;2023-02-26T01:11:12;0.10;99.90
13982;DHT22;7065;50.880;5.502;2023-02-26T01:13:37;0.10;99.90
13982;DHT22;7065;50.880;5.502;2023-02-26T01:16:08;0.10;99.90
13982;DHT22;7065;50.880;5.502;2023-02-26T01:19:02;0.00;99.90
13982;DHT22;7065;50.880;5.502;2023-02-26T01:21:36;0.00;99.90
13982;DHT22;7065;50.880;5.502;2023-02-26T01:24:06;0.00;99.90
13982;DHT22;7065;50.880;5.502;2023-02-26T01:26:33;-0.10;99.90
13982;DHT22;7065;50.880;5.502;2023-02-26T01:28:59;-0.10;99.90
13982;DHT22;7065;50.880;5.502;2023-02-26T01:31:56;-0.20;99.90
13982;DHT22;7065;50.880;5.502;2023-02-26T01:37:31;-0.30;99.90
13982;DHT22;7065;50.880;5.502;2023-02-26T01:42:51;-0.40;99.90
13982;DHT22;7065;50.880;5.502;2023-02-26T01:45:30;-0.50;99.90
13982;DHT22;7065;50.880;5.502;2023-02-26T01:48:10;-0.50;99.90
13982;DHT22;7065;50.880;5.502;2023-02-26T01:50:38;-0.50;99.90
13982;DHT22;7065;50.880;5.502;2023-02-26T01:53:23;-0.50;99.90
13982;DHT22;7065;50.880;5.502;2023-02-26T01:55:56;-0.50;99.90
13982;DHT22;7065;50.880;5.502;2023-02-26T01:58:23;-0.50;99.90
13982;DHT22;7065;50.880;5.502;2023-02-26T02:00:50;-0.50;99.90
13982;DHT22;7065;50.880;5.502;2023-02-26T02:03:18;-0.50;99.90
13982;DHT22;7065;50.880;5.502;2023-02-26T02:05:53;-0.50;99.90
13982;DHT22;7065;50.880;5.502;2023-02-26T02:08:21;-0.50;99.90
13982;DHT22;7065;50.880;5.502;2023-02-26T02:10:47;-0.50;99.90
13982;DHT22;7065;50.880;5.502;2023-02-26T02:31:56;-0.40;99.90
13982;DHT22;7065;50.880;5.502;2023-02-26T02:37:37;-0.40;99.90
13982;DHT22;7065;50.880;5.502;2023-02-26T02:48:12;-0.50;99.90
13982;DHT22;7065;50.880;5.502;2023-02-26T02:50:46;-0.50;99.90
13982;DHT22;7065;50.880;5.502;2023-02-26T02:53:44;-0.40;99.90
13982;DHT22;7065;50.880;5.502;2023-02-26T02:56:27;-0.30;99.90
13982;DHT22;7065;50.880;5.502;2023-02-26T02:59:15;-0.40;99.90
13982;DHT22;7065;50.880;5.502;2023-02-26T03:01:43;-0.40;99.90
13982;DHT22;7065;50.880;5.502;2023-02-26T03:04:12;-0.40;99.90
13982;DHT22;7065;50.880;5.502;2023-02-26T03:06:39;-0.40;99.90
13982;DHT22;7065;50.880;5.502;2023-02-26T03:09:07;-0.40;99.90
13982;DHT22;7065;50.880;5.502;2023-02-26T03:11:34;-0.40;99.90
13982;DHT22;7065;50.880;5.502;2023-02-26T03:14:00;-0.50;99.90
13982;DHT22;7065;50.880;5.502;2023-02-26T03:19:40;-0.50;99.90
13982;DHT22;7065;50.880;5.502;2023-02-26T03:25:05;-0.60;99.90
13982;DHT22;7065;50.880;5.502;2023-02-26T03:27:38;-0.50;99.90
13982;DHT22;7065;50.880;5.502;2023-02-26T03:30:20;-0.60;99.90
13982;DHT22;7065;50.880;5.502;2023-02-26T03:35:50;-0.60;99.90
13982;DHT22;7065;50.880;5.502;2023-02-26T03:38:41;-0.60;99.90
13982;DHT22;7065;50.880;5.502;2023-02-26T03:41:16;-0.70;99.90
13982;DHT22;7065;50.880;5.502;2023-02-26T03:43:47;-0.70;99.90
13982;DHT22;7065;50.880;5.502;2023-02-26T03:46:25;-0.70;99.90
13982;DHT22;7065;50.880;5.502;2023-02-26T03:48:53;-0.70;99.90
13982;DHT22;7065;50.880;5.502;2023-02-26T03:51:20;-0.70;99.90
13982;DHT22;7065;50.880;5.502;2023-02-26T03:53:52;-0.70;99.90
13982;DHT22;7065;50.880;5.502;2023-02-26T03:56:24;-0.80;99.90
13982;DHT22;7065;50.880;5.502;2023-02-26T03:58:52;-0.70;99.90
13982;DHT22;7065;50.880;5.502;2023-02-26T04:01:22;-0.80;99.90
13982;DHT22;7065;50.880;5.502;2023-02-26T04:04:30;-0.80;99.90
13982;DHT22;7065;50.880;5.502;2023-02-26T04:06:59;-0.90;99.90
13982;DHT22;7065;50.880;5.502;2023-02-26T04:09:25;-0.90;99.90
13982;DHT22;7065;50.880;5.502;2023-02-26T04:11:53;-0.90;99.90
13982;DHT22;7065;50.880;5.502;2023-02-26T04:14:19;-0.90;99.90
13982;DHT22;7065;50.880;5.502;2023-02-26T04:16:46;-0.90;99.90
13982;DHT22;7065;50.880;5.502;2023-02-26T04:19:12;-0.90;99.90
13982;DHT22;7065;50.880;5.502;2023-02-26T04:21:38;-0.90;99.90
13982;DHT22;7065;50.880;5.502;2023-02-26T04:24:04;-1.00;99.90
13982;DHT22;7065;50.880;5.502;2023-02-26T04:26:30;-0.90;99.90
13982;DHT22;7065;50.880;5.502;2023-02-26T04:28:56;-0.90;99.90
13982;DHT22;7065;50.880;5.502;2023-02-26T04:31:21;-1.00;99.90
13982;DHT22;7065;50.880;5.502;2023-02-26T04:33:47;-1.00;99.90
13982;DHT22;7065;50.880;5.502;2023-02-26T04:36:13;-1.00;99.90
13982;DHT22;7065;50.880;5.502;2023-02-26T04:38:39;-1.00;99.90
13982;DHT22;7065;50.880;5.502;2023-02-26T04:41:05;-1.00;99.90
13982;DHT22;7065;50.880;5.502;2023-02-26T04:43:31;-1.10;99.90
13982;DHT22;7065;50.880;5.502;2023-02-26T04:45:58;-1.10;99.90
13982;DHT22;7065;50.880;5.502;2023-02-26T04:48:23;-1.20;99.90
13982;DHT22;7065;50.880;5.502;2023-02-26T04:50:49;-1.10;99.90
13982;DHT22;7065;50.880;5.502;2023-02-26T04:53:15;-1.20;99.90
13982;DHT22;7065;50.880;5.502;2023-02-26T04:55:41;-1.20;99.90
13982;DHT22;7065;50.880;5.502;2023-02-26T04:58:08;-1.20;99.90
13982;DHT22;7065;50.880;5.502;2023-02-26T05:00:33;-1.20;99.90
13982;DHT22;7065;50.880;5.502;2023-02-26T05:02:59;-1.20;99.90
13982;DHT22;7065;50.880;5.502;2023-02-26T05:05:25;-1.20;99.90
13982;DHT22;7065;50.880;5.502;2023-02-26T05:07:51;-1.30;99.90
13982;DHT22;7065;50.880;5.502;2023-02-26T05:10:20;-1.30;99.90
13982;DHT22;7065;50.880;5.502;2023-02-26T05:12:45;-1.30;99.90
13982;DHT22;7065;50.880;5.502;2023-02-26T05:15:11;-1.30;99.90
13982;DHT22;7065;50.880;5.502;2023-02-26T05:17:37;-1.30;99.90
13982;DHT22;7065;50.880;5.502;2023-02-26T05:20:04;-1.30;99.90
13982;DHT22;7065;50.880;5.502;2023-02-26T05:22:30;-1.30;99.90
13982;DHT22;7065;50.880;5.502;2023-02-26T05:24:56;-1.30;99.90
13982;DHT22;7065;50.880;5.502;2023-02-26T05:27:22;-1.40;99.90
13982;DHT22;7065;50.880;5.502;2023-02-26T05:29:47;-1.40;99.90
13982;DHT22;7065;50.880;5.502;2023-02-26T05:32:13;-1.40;99.90
13982;DHT22;7065;50.880;5.502;2023-02-26T05:34:39;-1.40;99.90
13982;DHT22;7065;50.880;5.502;2023-02-26T05:37:05;-1.40;99.90
13982;DHT22;7065;50.880;5.502;2023-02-26T05:39:31;-1.40;99.90
13982;DHT22;7065;50.880;5.502;2023-02-26T05:41:57;-1.40;99.90
13982;DHT22;7065;50.880;5.502;2023-02-26T05:44:23;-1.50;99.90
13982;DHT22;7065;50.880;5.502;2023-02-26T05:46:48;-1.50;99.90
13982;DHT22;7065;50.880;5.502;2023-02-26T05:49:14;-1.50;99.90
13982;DHT22;7065;50.880;5.502;2023-02-26T05:51:40;-1.50;99.90
13982;DHT22;7065;50.880;5.502;2023-02-26T05:54:08;-1.40;99.90
13982;DHT22;7065;50.880;5.502;2023-02-26T05:56:34;-1.40;99.90
13982;DHT22;7065;50.880;5.502;2023-02-26T05:59:00;-1.40;99.90
13982;DHT22;7065;50.880;5.502;2023-02-26T06:01:26;-1.50;99.90
13982;DHT22;7065;50.880;5.502;2023-02-26T06:03:52;-1.50;99.90
13982;DHT22;7065;50.880;5.502;2023-02-26T06:06:18;-1.50;99.90
13982;DHT22;7065;50.880;5.502;2023-02-26T06:08:44;-1.50;99.90
13982;DHT22;7065;50.880;5.502;2023-02-26T06:11:10;-1.50;99.90
13982;DHT22;7065;50.880;5.502;2023-02-26T06:13:37;-1.50;99.90
13982;DHT22;7065;50.880;5.502;2023-02-26T06:16:03;-1.50;99.90
13982;DHT22;7065;50.880;5.502;2023-02-26T06:18:29;-1.50;99.90
13982;DHT22;7065;50.880;5.502;2023-02-26T06:20:56;-1.60;99.90
13982;DHT22;7065;50.880;5.502;2023-02-26T06:23:22;-1.60;99.90
13982;DHT22;7065;50.880;5.502;2023-02-26T06:25:50;-1.60;99.90
13982;DHT22;7065;50.880;5.502;2023-02-26T06:28:17;-1.50;99.90
13982;DHT22;7065;50.880;5.502;2023-02-26T06:30:43;-1.50;99.90
13982;DHT22;7065;50.880;5.502;2023-02-26T06:33:08;-1.50;99.90
13982;DHT22;7065;50.880;5.502;2023-02-26T06:35:34;-1.60;99.90
13982;DHT22;7065;50.880;5.502;2023-02-26T06:38:00;-1.60;99.90
13982;DHT22;7065;50.880;5.502;2023-02-26T06:40:26;-1.60;99.90
13982;DHT22;7065;50.880;5.502;2023-02-26T06:42:51;-1.60;99.90
13982;DHT22;7065;50.880;5.502;2023-02-26T06:45:17;-1.60;99.90
13982;DHT22;7065;50.880;5.502;2023-02-26T06:47:43;-1.60;99.90
13982;DHT22;7065;50.880;5.502;2023-02-26T06:50:09;-1.60;99.90
13982;DHT22;7065;50.880;5.502;2023-02-26T06:52:35;-1.60;99.90
13982;DHT22;7065;50.880;5.502;2023-02-26T06:55:02;-1.60;99.90
13982;DHT22;7065;50.880;5.502;2023-02-26T06:57:28;-1.50;99.90
13982;DHT22;7065;50.880;5.502;2023-02-26T06:59:54;-1.50;99.90
13982;DHT22;7065;50.880;5.502;2023-02-26T07:02:21;-1.50;99.90
13982;DHT22;7065;50.880;5.502;2023-02-26T07:04:47;-1.50;99.90
13982;DHT22;7065;50.880;5.502;2023-02-26T07:07:13;-1.40;99.90
13982;DHT22;7065;50.880;5.502;2023-02-26T07:09:39;-1.40;99.90
13982;DHT22;7065;50.880;5.502;2023-02-26T07:12:05;-1.40;99.90
13982;DHT22;7065;50.880;5.502;2023-02-26T07:14:32;-1.40;99.90
13982;DHT22;7065;50.880;5.502;2023-02-26T07:16:59;-1.40;99.90
13982;DHT22;7065;50.880;5.502;2023-02-26T07:19:25;-1.30;99.90
13982;DHT22;7065;50.880;5.502;2023-02-26T07:21:51;-1.30;99.90
13982;DHT22;7065;50.880;5.502;2023-02-26T07:24:17;-1.20;99.90
13982;DHT22;7065;50.880;5.502;2023-02-26T07:26:43;-1.20;99.90
13982;DHT22;7065;50.880;5.502;2023-02-26T07:29:08;-1.20;99.90
13982;DHT22;7065;50.880;5.502;2023-02-26T07:31:34;-1.10;99.90
13982;DHT22;7065;50.880;5.502;2023-02-26T07:34:00;-1.10;99.90
13982;DHT22;7065;50.880;5.502;2023-02-26T07:36:26;-1.00;99.90
13982;DHT22;7065;50.880;5.502;2023-02-26T07:38:52;-1.00;99.90
13982;DHT22;7065;50.880;5.502;2023-02-26T07:41:18;-0.90;99.90
13982;DHT22;7065;50.880;5.502;2023-02-26T07:43:43;-0.90;99.90
13982;DHT22;7065;50.880;5.502;2023-02-26T07:46:09;-0.80;99.90
13982;DHT22;7065;50.880;5.502;2023-02-26T07:48:35;-0.80;99.90
13982;DHT22;7065;50.880;5.502;2023-02-26T07:51:01;-0.80;99.90
13982;DHT22;7065;50.880;5.502;2023-02-26T07:53:27;-0.70;99.90
13982;DHT22;7065;50.880;5.502;2023-02-26T07:55:53;-0.60;99.90
13982;DHT22;7065;50.880;5.502;2023-02-26T07:58:18;-0.60;99.90
13982;DHT22;7065;50.880;5.502;2023-02-26T08:00:44;-0.50;99.90
13982;DHT22;7065;50.880;5.502;2023-02-26T08:03:10;-0.50;99.90
13982;DHT22;7065;50.880;5.502;2023-02-26T08:05:36;-0.50;99.90
13982;DHT22;7065;50.880;5.502;2023-02-26T08:08:01;-0.40;99.90
13982;DHT22;7065;50.880;5.502;2023-02-26T08:10:28;-0.30;99.90
13982;DHT22;7065;50.880;5.502;2023-02-26T08:12:54;-0.20;99.90
13982;DHT22;7065;50.880;5.502;2023-02-26T08:15:20;-0.20;99.90
13982;DHT22;7065;50.880;5.502;2023-02-26T08:17:46;-0.10;99.90
13982;DHT22;7065;50.880;5.502;2023-02-26T08:20:12;-0.10;99.90
13982;DHT22;7065;50.880;5.502;2023-02-26T08:22:40;0.00;99.90
13982;DHT22;7065;50.880;5.502;2023-02-26T08:25:06;0.00;99.90
13982;DHT22;7065;50.880;5.502;2023-02-26T08:27:32;0.00;99.90
13982;DHT22;7065;50.880;5.502;2023-02-26T08:29:58;0.10;99.90
13982;DHT22;7065;50.880;5.502;2023-02-26T08:32:23;0.10;99.90
13982;DHT22;7065;50.880;5.502;2023-02-26T08:34:51;0.20;99.90
13982;DHT22;7065;50.880;5.502;2023-02-26T08:37:17;0.20;99.90
13982;DHT22;7065;50.880;5.502;2023-02-26T08:39:43;0.20;99.90
13982;DHT22;7065;50.880;5.502;2023-02-26T08:42:09;0.30;99.90
13982;DHT22;7065;50.880;5.502;2023-02-26T08:44:35;0.30;99.90
13982;DHT22;7065;50.880;5.502;2023-02-26T08:47:01;0.30;99.90
13982;DHT22;7065;50.880;5.502;2023-02-26T08:49:28;0.40;99.90
13982;DHT22;7065;50.880;5.502;2023-02-26T08:51:53;0.50;99.90
13982;DHT22;7065;50.880;5.502;2023-02-26T08:54:19;0.50;99.90
13982;DHT22;7065;50.880;5.502;2023-02-26T08:56:45;0.50;99.90
13982;DHT22;7065;50.880;5.502;2023-02-26T08:59:11;0.50;99.90
13982;DHT22;7065;50.880;5.502;2023-02-26T09:01:38;0.60;99.90
13982;DHT22;7065;50.880;5.502;2023-02-26T09:04:03;0.60;99.90
13982;DHT22;7065;50.880;5.502;2023-02-26T09:06:29;0.70;99.90
13982;DHT22;7065;50.880;5.502;2023-02-26T09:08:55;0.70;99.90
13982;DHT22;7065;50.880;5.502;2023-02-26T09:11:21;0.70;99.90
13982;DHT22;7065;50.880;5.502;2023-02-26T09:13:46;0.70;99.90
13982;DHT22;7065;50.880;5.502;2023-02-26T09:16:12;0.70;99.90
13982;DHT22;7065;50.880;5.502;2023-02-26T09:18:38;0.80;99.90
13982;DHT22;7065;50.880;5.502;2023-02-26T09:21:03;0.80;99.90
13982;DHT22;7065;50.880;5.502;2023-02-26T09:23:29;0.90;99.90
13982;DHT22;7065;50.880;5.502;2023-02-26T09:25:56;1.00;99.90
13982;DHT22;7065;50.880;5.502;2023-02-26T09:28:23;1.10;99.90
13982;DHT22;7065;50.880;5.502;2023-02-26T09:30:55;1.10;99.90
13982;DHT22;7065;50.880;5.502;2023-02-26T09:33:21;1.20;99.90
13982;DHT22;7065;50.880;5.502;2023-02-26T09:35:48;1.20;99.90
13982;DHT22;7065;50.880;5.502;2023-02-26T09:38:15;1.30;99.90
13982;DHT22;7065;50.880;5.502;2023-02-26T09:41:05;1.40;99.90
13982;DHT22;7065;50.880;5.502;2023-02-26T09:46:08;1.70;99.90
13982;DHT22;7065;50.880;5.502;2023-02-26T09:48:36;1.70;99.90
13982;DHT22;7065;50.880;5.502;2023-02-26T09:51:03;1.70;99.90
13982;DHT22;7065;50.880;5.502;2023-02-26T09:53:32;1.70;99.90
13982;DHT22;7065;50.880;5.502;2023-02-26T09:56:06;1.70;99.90
13982;DHT22;7065;50.880;5.502;2023-02-26T09:58:37;1.80;99.90
13982;DHT22;7065;50.880;5.502;2023-02-26T10:09:18;2.10;99.90
13982;DHT22;7065;50.880;5.502;2023-02-26T10:12:06;2.00;99.90
13982;DHT22;7065;50.880;5.502;2023-02-26T10:14:43;2.00;99.90
13982;DHT22;7065;50.880;5.502;2023-02-26T10:19:59;2.20;99.90
13982;DHT22;7065;50.880;5.502;2023-02-26T10:23:15;2.30;99.90
13982;DHT22;7065;50.880;5.502;2023-02-26T10:25:21;2.40;99.90
13982;DHT22;7065;50.880;5.502;2023-02-26T10:28:06;2.60;99.90
13982;DHT22;7065;50.880;5.502;2023-02-26T10:30:41;2.70;99.90
13982;DHT22;7065;50.880;5.502;2023-02-26T10:36:01;3.10;99.90
13982;DHT22;7065;50.880;5.502;2023-02-26T10:38:30;3.20;99.90
13982;DHT22;7065;50.880;5.502;2023-02-26T10:43:33;3.20;99.90
13982;DHT22;7065;50.880;5.502;2023-02-26T10:46:20;3.30;99.90
13982;DHT22;7065;50.880;5.502;2023-02-26T10:51:44;3.20;99.90
13982;DHT22;7065;50.880;5.502;2023-02-26T10:54:14;3.20;99.90
13982;DHT22;7065;50.880;5.502;2023-02-26T10:56:41;3.10;99.90
13982;DHT22;7065;50.880;5.502;2023-02-26T10:59:07;3.00;99.90
13982;DHT22;7065;50.880;5.502;2023-02-26T11:01:33;3.00;99.90
13982;DHT22;7065;50.880;5.502;2023-02-26T11:04:17;3.00;99.90
13982;DHT22;7065;50.880;5.502;2023-02-26T11:06:58;3.20;99.90
13982;DHT22;7065;50.880;5.502;2023-02-26T11:09:38;3.20;99.90
13982;DHT22;7065;50.880;5.502;2023-02-26T11:14:37;2.80;99.90
13982;DHT22;7065;50.880;5.502;2023-02-26T11:17:09;2.80;99.90
13982;DHT22;7065;50.880;5.502;2023-02-26T11:19:38;2.80;99.90
13982;DHT22;7065;50.880;5.502;2023-02-26T11:22:07;2.80;99.90
13982;DHT22;7065;50.880;5.502;2023-02-26T11:24:41;2.70;99.90
13982;DHT22;7065;50.880;5.502;2023-02-26T11:27:35;2.70;99.90
13982;DHT22;7065;50.880;5.502;2023-02-26T11:30:16;2.70;99.90
13982;DHT22;7065;50.880;5.502;2023-02-26T11:32:43;2.60;99.90
13982;DHT22;7065;50.880;5.502;2023-02-26T11:35:13;2.60;99.90
13982;DHT22;7065;50.880;5.502;2023-02-26T11:37:41;2.60;99.90
13982;DHT22;7065;50.880;5.502;2023-02-26T11:40:17;2.70;99.90
13982;DHT22;7065;50.880;5.502;2023-02-26T11:42:54;2.60;99.90
13982;DHT22;7065;50.880;5.502;2023-02-26T11:45:20;2.60;99.90
13982;DHT22;7065;50.880;5.502;2023-02-26T11:47:48;2.60;99.90
13982;DHT22;7065;50.880;5.502;2023-02-26T11:50:22;2.50;99.90
13982;DHT22;7065;50.880;5.502;2023-02-26T11:52:55;2.70;99.90
13982;DHT22;7065;50.880;5.502;2023-02-26T11:55:31;2.80;99.90
13982;DHT22;7065;50.880;5.502;2023-02-26T11:57:57;2.80;99.90
13982;DHT22;7065;50.880;5.502;2023-02-26T12:00:30;2.70;99.90
13982;DHT22;7065;50.880;5.502;2023-02-26T12:03:01;2.80;99.90
13982;DHT22;7065;50.880;5.502;2023-02-26T12:05:30;3.00;99.90
13982;DHT22;7065;50.880;5.502;2023-02-26T12:07:56;3.10;99.90
13982;DHT22;7065;50.880;5.502;2023-02-26T12:10:38;3.30;99.90
13982;DHT22;7065;50.880;5.502;2023-02-26T12:13:35;3.50;99.90
13982;DHT22;7065;50.880;5.502;2023-02-26T12:27:06;3.90;99.90
13982;DHT22;7065;50.880;5.502;2023-02-26T12:36:07;3.60;99.90
13982;DHT22;7065;50.880;5.502;2023-02-26T12:44:20;3.60;99.90
13982;DHT22;7065;50.880;5.502;2023-02-26T12:46:58;3.80;99.90
13982;DHT22;7065;50.880;5.502;2023-02-26T12:55:23;4.40;99.90
13982;DHT22;7065;50.880;5.502;2023-02-26T12:58:14;4.40;99.90
13982;DHT22;7065;50.880;5.502;2023-02-26T13:03:43;4.60;99.90
13982;DHT22;7065;50.880;5.502;2023-02-26T13:09:33;4.60;99.90
13982;DHT22;7065;50.880;5.502;2023-02-26T13:18:05;3.70;99.90
13982;DHT22;7065;50.880;5.502;2023-02-26T13:20:34;3.90;99.90
13982;DHT22;7065;50.880;5.502;2023-02-26T13:23:23;4.10;99.90
13982;DHT22;7065;50.880;5.502;2023-02-26T13:25:59;4.30;99.90
13982;DHT22;7065;50.880;5.502;2023-02-26T13:28:42;4.10;99.90
13982;DHT22;7065;50.880;5.502;2023-02-26T13:31:20;4.10;99.90
13982;DHT22;7065;50.880;5.502;2023-02-26T13:33:47;4.10;99.90
13982;DHT22;7065;50.880;5.502;2023-02-26T13:36:15;4.10;99.90
13982;DHT22;7065;50.880;5.502;2023-02-26T13:41:37;3.90;99.90
13982;DHT22;7065;50.880;5.502;2023-02-26T13:47:10;4.30;99.90
13982;DHT22;7065;50.880;5.502;2023-02-26T13:50:04;4.50;99.90
13982;DHT22;7065;50.880;5.502;2023-02-26T13:52:34;4.70;99.90
13982;DHT22;7065;50.880;5.502;2023-02-26T13:55:03;4.70;99.90
13982;DHT22;7065;50.880;5.502;2023-02-26T13:57:36;4.70;99.90
13982;DHT22;7065;50.880;5.502;2023-02-26T14:02:57;4.90;99.90
13982;DHT22;7065;50.880;5.502;2023-02-26T14:10:58;4.50;99.90
13982;DHT22;7065;50.880;5.502;2023-02-26T14:13:35;4.60;99.90
13982;DHT22;7065;50.880;5.502;2023-02-26T14:16:11;4.70;99.90
13982;DHT22;7065;50.880;5.502;2023-02-26T14:21:27;4.90;99.90
13982;DHT22;7065;50.880;5.502;2023-02-26T14:24:18;4.90;99.90
13982;DHT22;7065;50.880;5.502;2023-02-26T14:26:50;4.90;99.90
13982;DHT22;7065;50.880;5.502;2023-02-26T14:29:25;4.90;99.90
13982;DHT22;7065;50.880;5.502;2023-02-26T14:32:13;4.90;99.90
13982;DHT22;7065;50.880;5.502;2023-02-26T14:34:49;4.90;99.90
13982;DHT22;7065;50.880;5.502;2023-02-26T14:37:19;4.80;99.90
13982;DHT22;7065;50.880;5.502;2023-02-26T14:47:54;4.60;99.90
13982;DHT22;7065;50.880;5.502;2023-02-26T14:50:22;4.60;99.90
13982;DHT22;7065;50.880;5.502;2023-02-26T14:55:44;4.50;99.90
13982;DHT22;7065;50.880;5.502;2023-02-26T15:07:21;4.70;99.90
13982;DHT22;7065;50.880;5.502;2023-02-26T15:10:02;4.60;99.90
13982;DHT22;7065;50.880;5.502;2023-02-26T15:23:59;4.40;99.90
13982;DHT22;7065;50.880;5.502;2023-02-26T15:26:38;4.40;99.90
13982;DHT22;7065;50.880;5.502;2023-02-26T15:29:09;4.50;99.90
13982;DHT22;7065;50.880;5.502;2023-02-26T15:31:44;4.50;99.90
13982;DHT22;7065;50.880;5.502;2023-02-26T15:34:14;4.40;99.90
13982;DHT22;7065;50.880;5.502;2023-02-26T15:36:45;4.30;99.90
13982;DHT22;7065;50.880;5.502;2023-02-26T15:39:13;4.20;99.90
13982;DHT22;7065;50.880;5.502;2023-02-26T15:41:41;4.00;99.90
13982;DHT22;7065;50.880;5.502;2023-02-26T15:44:09;3.90;99.90
13982;DHT22;7065;50.880;5.502;2023-02-26T15:46:44;3.90;99.90
13982;DHT22;7065;50.880;5.502;2023-02-26T15:49:24;4.00;99.90
13982;DHT22;7065;50.880;5.502;2023-02-26T15:51:52;4.00;99.90
13982;DHT22;7065;50.880;5.502;2023-02-26T15:54:20;4.20;99.90
13982;DHT22;7065;50.880;5.502;2023-02-26T15:56:47;4.20;99.90
13982;DHT22;7065;50.880;5.502;2023-02-26T15:59:17;4.30;99.90
13982;DHT22;7065;50.880;5.502;2023-02-26T16:01:44;4.30;99.90
13982;DHT22;7065;50.880;5.502;2023-02-26T16:04:16;4.30;99.90
13982;DHT22;7065;50.880;5.502;2023-02-26T16:06:46;4.20;99.90
13982;DHT22;7065;50.880;5.502;2023-02-26T16:09:19;4.10;99.90
13982;DHT22;7065;50.880;5.502;2023-02-26T16:11:46;4.10;99.90
13982;DHT22;7065;50.880;5.502;2023-02-26T16:14:17;4.10;99.90
13982;DHT22;7065;50.880;5.502;2023-02-26T16:16:48;4.00;99.90
13982;DHT22;7065;50.880;5.502;2023-02-26T16:21:54;3.90;99.90
13982;DHT22;7065;50.880;5.502;2023-02-26T16:24:21;3.90;99.90
13982;DHT22;7065;50.880;5.502;2023-02-26T16:26:57;3.90;99.90
13982;DHT22;7065;50.880;5.502;2023-02-26T16:29:29;3.80;99.90
13982;DHT22;7065;50.880;5.502;2023-02-26T16:32:01;3.70;99.90
13982;DHT22;7065;50.880;5.502;2023-02-26T16:39:45;3.60;99.90
13982;DHT22;7065;50.880;5.502;2023-02-26T16:42:15;3.50;99.90
13982;DHT22;7065;50.880;5.502;2023-02-26T16:44:50;3.50;99.90
13982;DHT22;7065;50.880;5.502;2023-02-26T16:47:22;3.50;99.90
13982;DHT22;7065;50.880;5.502;2023-02-26T16:49:48;3.40;99.90
13982;DHT22;7065;50.880;5.502;2023-02-26T16:52:19;3.40;99.90
13982;DHT22;7065;50.880;5.502;2023-02-26T16:54:57;3.30;99.90
13982;DHT22;7065;50.880;5.502;2023-02-26T16:57:35;3.20;99.90
13982;DHT22;7065;50.880;5.502;2023-02-26T17:00:05;3.20;99.90
13982;DHT22;7065;50.880;5.502;2023-02-26T17:02:36;3.10;99.90
13982;DHT22;7065;50.880;5.502;2023-02-26T17:05:23;3.10;99.90
13982;DHT22;7065;50.880;5.502;2023-02-26T17:07:55;3.00;99.90
13982;DHT22;7065;50.880;5.502;2023-02-26T17:10:33;2.90;99.90
13982;DHT22;7065;50.880;5.502;2023-02-26T17:13:15;2.80;99.90
13982;DHT22;7065;50.880;5.502;2023-02-26T17:15:44;2.70;99.90
13982;DHT22;7065;50.880;5.502;2023-02-26T17:18:11;2.60;99.90
13982;DHT22;7065;50.880;5.502;2023-02-26T17:20:37;2.60;99.90
13982;DHT22;7065;50.880;5.502;2023-02-26T17:23:05;2.50;99.90
13982;DHT22;7065;50.880;5.502;2023-02-26T17:25:37;2.40;99.90
13982;DHT22;7065;50.880;5.502;2023-02-26T17:28:03;2.30;99.90
13982;DHT22;7065;50.880;5.502;2023-02-26T17:30:29;2.20;99.90
13982;DHT22;7065;50.880;5.502;2023-02-26T17:33:00;2.20;99.90
13982;DHT22;7065;50.880;5.502;2023-02-26T17:35:28;2.10;99.90
13982;DHT22;7065;50.880;5.502;2023-02-26T17:37:56;2.00;99.90
13982;DHT22;7065;50.880;5.502;2023-02-26T17:40:25;2.00;99.90
13982;DHT22;7065;50.880;5.502;2023-02-26T17:42:51;1.90;99.90
13982;DHT22;7065;50.880;5.502;2023-02-26T17:45:18;1.70;99.90
13982;DHT22;7065;50.880;5.502;2023-02-26T17:47:45;1.70;99.90
13982;DHT22;7065;50.880;5.502;2023-02-26T17:50:43;1.60;99.90
13982;DHT22;7065;50.880;5.502;2023-02-26T17:53:11;1.50;99.90
13982;DHT22;7065;50.880;5.502;2023-02-26T17:55:37;1.50;99.90
13982;DHT22;7065;50.880;5.502;2023-02-26T17:58:06;1.40;99.90
13982;DHT22;7065;50.880;5.502;2023-02-26T18:00:32;1.30;99.90
13982;DHT22;7065;50.880;5.502;2023-02-26T18:03:04;1.20;99.90
13982;DHT22;7065;50.880;5.502;2023-02-26T18:05:29;1.10;99.90
13982;DHT22;7065;50.880;5.502;2023-02-26T18:07:57;1.00;99.90
13982;DHT22;7065;50.880;5.502;2023-02-26T18:10:23;1.00;99.90
13982;DHT22;7065;50.880;5.502;2023-02-26T18:12:49;0.90;99.90
13982;DHT22;7065;50.880;5.502;2023-02-26T18:15:15;0.90;99.90
13982;DHT22;7065;50.880;5.502;2023-02-26T18:17:41;0.90;99.90
13982;DHT22;7065;50.880;5.502;2023-02-26T18:20:17;0.90;99.90
13982;DHT22;7065;50.880;5.502;2023-02-26T18:22:43;0.90;99.90
13982;DHT22;7065;50.880;5.502;2023-02-26T18:25:12;0.90;99.90
13982;DHT22;7065;50.880;5.502;2023-02-26T18:27:38;0.90;99.90
13982;DHT22;7065;50.880;5.502;2023-02-26T18:30:04;0.90;99.90
13982;DHT22;7065;50.880;5.502;2023-02-26T18:32:30;1.00;99.90
13982;DHT22;7065;50.880;5.502;2023-02-26T18:34:56;1.10;99.90
13982;DHT22;7065;50.880;5.502;2023-02-26T18:37:24;1.10;99.90
13982;DHT22;7065;50.880;5.502;2023-02-26T18:39:50;1.20;99.90
13982;DHT22;7065;50.880;5.502;2023-02-26T18:42:22;1.20;99.90
13982;DHT22;7065;50.880;5.502;2023-02-26T18:44:48;1.20;99.90
13982;DHT22;7065;50.880;5.502;2023-02-26T18:47:15;1.20;99.90
13982;DHT22;7065;50.880;5.502;2023-02-26T18:49:42;1.30;99.90
13982;DHT22;7065;50.880;5.502;2023-02-26T18:52:08;1.20;99.90
13982;DHT22;7065;50.880;5.502;2023-02-26T18:54:33;1.20;99.90
13982;DHT22;7065;50.880;5.502;2023-02-26T18:57:01;1.10;99.90
13982;DHT22;7065;50.880;5.502;2023-02-26T18:59:27;1.00;99.90
13982;DHT22;7065;50.880;5.502;2023-02-26T19:01:53;0.90;99.90
13982;DHT22;7065;50.880;5.502;2023-02-26T19:04:18;0.80;99.90